createdAt,value
2023-02-04T00:00:40.190Z,24.95
2023-02-04T00:03:08.500Z,19.50
2023-02-04T00:05:36.949Z,17.63
2023-02-04T00:08:06.773Z,21.60
2023-02-04T00:10:37.504Z,20.13
2023-02-04T00:13:05.387Z,19.77
2023-02-04T00:15:33.760Z,16.42
2023-02-04T00:18:01.753Z,17.92
2023-02-04T00:20:32.071Z,26.60
2023-02-04T00:23:00.377Z,23.35
2023-02-04T00:25:28.547Z,19.63
2023-02-04T00:27:57.892Z,21.20
2023-02-04T00:30:26.152Z,17.13
2023-02-04T00:32:54.930Z,17.40
2023-02-04T00:35:22.952Z,20.20
2023-02-04T00:37:50.858Z,18.48
2023-02-04T00:40:19.535Z,21.27
2023-02-04T00:42:47.223Z,20.50
2023-02-04T00:45:16.162Z,14.40
2023-02-04T00:47:43.833Z,21.92
2023-02-04T00:50:12.230Z,17.92
2023-02-04T00:52:40.168Z,16.38
2023-02-04T00:55:10.325Z,16.73
2023-02-04T00:57:38.190Z,23.02
2023-02-04T01:00:08.560Z,20.60
2023-02-04T01:02:37.603Z,19.20
2023-02-04T01:05:05.955Z,22.88
2023-02-04T01:07:34.810Z,18.33
2023-02-04T01:10:02.578Z,17.67
2023-02-04T01:12:32.761Z,21.80
2023-02-04T01:15:00.604Z,24.90
2023-02-04T01:17:28.352Z,23.73
2023-02-04T01:19:57.671Z,20.90
2023-02-04T01:22:29.227Z,22.50
2023-02-04T01:24:57.024Z,20.88
2023-02-04T01:27:43.783Z,18.48
2023-02-04T01:30:13.462Z,21.85
2023-02-04T01:32:44.827Z,21.05
2023-02-04T01:35:14.843Z,19.13
2023-02-04T01:37:42.453Z,18.55
2023-02-04T01:40:12.276Z,20.02
2023-02-04T01:43:04.673Z,22.77
2023-02-04T01:45:35.868Z,19.98
2023-02-04T01:48:06.844Z,25.83
2023-02-04T01:50:37.555Z,20.88
2023-02-04T01:53:05.502Z,26.92
2023-02-04T01:55:34.753Z,18.10
2023-02-04T01:58:03.752Z,23.75
2023-02-04T02:00:33.652Z,20.35
2023-02-04T02:03:03.786Z,21.60
2023-02-04T02:05:37.941Z,17.73
2023-02-04T02:08:09.258Z,21.17
2023-02-04T02:10:45.402Z,22.02
2023-02-04T02:13:16.897Z,23.92
2023-02-04T02:15:49.325Z,17.65
2023-02-04T02:18:17.868Z,21.73
2023-02-04T02:20:46.409Z,21.27
2023-02-04T02:23:29.763Z,16.88
2023-02-04T02:26:00.540Z,22.52
2023-02-04T02:28:28.763Z,20.33
2023-02-04T02:30:56.804Z,26.50
2023-02-04T02:33:26.781Z,25.50
2023-02-04T03:33:55.952Z,20.00
2023-02-04T03:39:13.748Z,22.15
2023-02-04T03:44:33.396Z,18.55
2023-02-04T03:47:01.015Z,18.65
2023-02-04T03:49:32.189Z,23.00
2023-02-04T03:51:59.850Z,19.08
2023-02-04T03:54:31.301Z,19.27
2023-02-04T03:56:59.447Z,25.67
2023-02-04T03:59:28.049Z,27.58
2023-02-04T04:01:56.831Z,19.85
2023-02-04T04:04:24.608Z,19.73
2023-02-04T04:06:53.828Z,25.00
2023-02-04T04:09:21.829Z,23.40
2023-02-04T04:11:49.584Z,22.42
2023-02-04T04:14:17.874Z,19.80
2023-02-04T04:16:47.155Z,21.17
2023-02-04T04:19:14.772Z,17.98
2023-02-04T04:21:43.846Z,23.73
2023-02-04T04:24:12.820Z,14.77
2023-02-04T04:26:43.861Z,18.88
2023-02-04T04:32:10.776Z,15.23
2023-02-04T04:34:39.887Z,22.27
2023-02-04T04:37:07.535Z,21.35
2023-02-04T04:39:36.661Z,21.73
2023-02-04T04:42:06.759Z,19.95
2023-02-04T04:44:34.425Z,23.10
2023-02-04T04:47:03.133Z,22.10
2023-02-04T04:49:32.308Z,18.40
2023-02-04T04:51:59.961Z,26.20
2023-02-04T04:54:28.141Z,19.95
2023-02-04T04:56:57.113Z,13.77
2023-02-04T04:59:24.729Z,19.25
2023-02-04T05:01:52.848Z,16.90
2023-02-04T05:04:21.315Z,19.50
2023-02-04T05:06:49.738Z,17.88
2023-02-04T05:09:21.777Z,18.05
2023-02-04T05:14:18.463Z,16.02
2023-02-04T05:16:46.762Z,27.40
2023-02-04T05:19:14.308Z,20.20
2023-02-04T05:21:42.225Z,15.82
2023-02-04T05:24:09.878Z,22.65
2023-02-04T05:26:38.155Z,14.77
2023-02-04T05:29:06.690Z,19.88
2023-02-04T05:31:36.590Z,18.77
2023-02-04T05:34:04.307Z,23.58
2023-02-04T05:36:32.071Z,21.00
2023-02-04T05:38:59.681Z,21.08
2023-02-04T05:41:27.231Z,21.50
2023-02-04T05:43:56.034Z,19.80
2023-02-04T05:46:23.755Z,18.70
2023-02-04T05:49:22.256Z,21.40
2023-02-04T05:51:50.241Z,24.27
2023-02-04T05:54:20.482Z,22.15
2023-02-04T05:56:48.403Z,20.33
2023-02-04T05:59:17.754Z,15.90
2023-02-04T06:01:47.805Z,14.23
2023-02-04T06:04:16.513Z,15.23
2023-02-04T06:06:45.774Z,14.40
2023-02-04T06:09:15.738Z,18.58
2023-02-04T06:11:44.879Z,19.25
2023-02-04T06:14:13.764Z,21.42
2023-02-04T06:16:41.889Z,22.55
2023-02-04T06:19:09.600Z,14.02
2023-02-04T06:21:37.180Z,24.73
2023-02-04T06:24:07.458Z,19.55
2023-02-04T06:26:35.141Z,17.75
2023-02-04T06:29:27.555Z,15.60
2023-02-04T06:31:55.900Z,21.15
2023-02-04T06:34:24.126Z,20.30
2023-02-04T06:36:58.924Z,15.73
2023-02-04T06:39:29.782Z,20.73
2023-02-04T06:41:58.682Z,22.48
2023-02-04T06:44:26.245Z,18.65
2023-02-04T06:46:54.036Z,16.77
2023-02-04T06:49:21.657Z,19.88
2023-02-04T06:51:50.423Z,20.42
2023-02-04T06:54:19.737Z,16.30
2023-02-04T06:56:49.891Z,17.27
2023-02-04T06:59:19.762Z,18.95
2023-02-04T07:01:47.870Z,18.00
2023-02-04T07:04:15.758Z,16.63
2023-02-04T07:07:09.092Z,19.15
2023-02-04T07:09:40.468Z,16.88
2023-02-04T07:12:09.820Z,21.73
2023-02-04T07:14:37.427Z,18.13
2023-02-04T07:17:05.120Z,17.05
2023-02-04T07:19:33.858Z,23.55
2023-02-04T07:22:04.825Z,17.48
2023-02-04T07:24:32.472Z,20.17
2023-02-04T07:27:02.535Z,16.65
2023-02-04T07:29:31.763Z,15.48
2023-02-04T07:31:59.952Z,14.20
2023-02-04T07:34:27.785Z,12.45
2023-02-04T07:36:56.284Z,13.82
2023-02-04T07:39:25.732Z,19.23
2023-02-04T07:41:55.756Z,15.43
2023-02-04T07:44:34.815Z,16.58
2023-02-04T07:47:03.225Z,18.10
2023-02-04T07:49:34.820Z,17.92
2023-02-04T07:52:04.449Z,24.95
2023-02-04T07:54:33.831Z,16.10
2023-02-04T07:57:05.739Z,15.32
2023-02-04T07:59:35.752Z,20.25
2023-02-04T08:02:03.311Z,20.00
2023-02-04T08:04:32.437Z,22.60
2023-02-04T08:07:00.813Z,20.70
2023-02-04T08:09:28.835Z,18.45
2023-02-04T08:12:00.722Z,16.15
2023-02-04T08:14:29.760Z,17.58
2023-02-04T08:17:01.539Z,20.63
2023-02-04T08:19:29.726Z,14.75
2023-02-04T08:21:57.285Z,18.50
2023-02-04T08:24:24.987Z,15.98
2023-02-04T08:26:52.625Z,16.05
2023-02-04T08:29:20.627Z,15.30
2023-02-04T08:31:48.624Z,13.15
2023-02-04T08:34:43.937Z,12.18
2023-02-04T08:37:11.849Z,12.40
2023-02-04T08:39:46.137Z,8.77
2023-02-04T08:42:40.744Z,11.48
2023-02-04T08:45:10.796Z,10.68
2023-02-04T08:47:38.444Z,10.05
2023-02-04T08:50:09.817Z,10.50
2023-02-04T08:52:38.167Z,8.25
2023-02-04T08:55:30.640Z,6.72
2023-02-04T08:57:59.032Z,7.72
2023-02-04T09:00:26.668Z,8.13
2023-02-04T09:05:47.735Z,10.52
2023-02-04T09:08:15.710Z,7.00
2023-02-04T09:11:10.597Z,8.98
2023-02-04T09:13:38.208Z,8.63
2023-02-04T09:16:07.621Z,9.48
2023-02-04T09:18:35.313Z,7.05
2023-02-04T09:21:04.448Z,7.18
2023-02-04T09:23:32.838Z,7.70
2023-02-04T09:26:01.282Z,9.65
2023-02-04T09:28:28.946Z,7.38
2023-02-04T09:30:56.776Z,9.23
2023-02-04T09:33:24.874Z,7.75
2023-02-04T09:35:52.591Z,7.95
2023-02-04T09:38:22.147Z,10.30
2023-02-04T09:40:54.541Z,5.43
2023-02-04T09:43:26.107Z,8.10
2023-02-04T09:45:54.589Z,10.30
2023-02-04T09:48:26.807Z,7.72
2023-02-04T09:51:04.657Z,7.93
2023-02-04T09:53:37.286Z,9.82
2023-02-04T09:56:05.843Z,9.23
2023-02-04T09:58:36.285Z,9.30
2023-02-04T10:01:12.096Z,6.97
2023-02-04T10:03:46.400Z,6.90
2023-02-04T10:06:15.674Z,11.27
2023-02-04T10:08:47.444Z,11.52
2023-02-04T10:11:16.292Z,11.77
2023-02-04T10:13:47.709Z,8.52
2023-02-04T10:16:18.087Z,6.05
2023-02-04T10:18:46.741Z,10.25
2023-02-04T10:21:20.761Z,11.07
2023-02-04T10:23:55.141Z,11.25
2023-02-04T10:26:29.250Z,10.82
2023-02-04T10:29:01.416Z,11.45
2023-02-04T10:34:35.453Z,8.98
2023-02-04T10:37:13.622Z,11.48
2023-02-04T10:39:45.019Z,9.27
2023-02-04T10:44:48.655Z,11.07
2023-02-04T10:47:20.177Z,15.15
2023-02-04T10:50:02.818Z,12.55
2023-02-04T10:52:36.185Z,15.25
2023-02-04T10:55:07.276Z,11.32
2023-02-04T10:57:39.781Z,11.27
2023-02-04T11:00:17.111Z,13.68
2023-02-04T11:02:49.181Z,15.25
2023-02-04T11:05:19.879Z,15.07
2023-02-04T11:07:49.354Z,10.32
2023-02-04T11:10:21.781Z,12.25
2023-02-04T11:13:02.196Z,10.75
2023-02-04T11:15:49.812Z,13.65
2023-02-04T11:18:30.946Z,13.25
2023-02-04T11:21:00.523Z,15.25
2023-02-04T11:23:37.232Z,11.80
2023-02-04T11:26:10.510Z,16.90
2023-02-04T11:28:58.073Z,12.52
2023-02-04T11:31:41.271Z,18.75
2023-02-04T11:34:14.331Z,17.13
2023-02-04T11:36:57.775Z,15.45
2023-02-04T11:39:30.364Z,11.93
2023-02-04T11:42:01.844Z,12.80
2023-02-04T11:44:30.677Z,15.15
2023-02-04T11:47:02.661Z,13.73
2023-02-04T11:49:31.448Z,14.35
2023-02-04T11:52:08.657Z,14.48
2023-02-04T11:54:37.045Z,11.40
2023-02-04T11:57:07.134Z,11.70
2023-02-04T11:59:35.760Z,12.88
2023-02-04T12:02:16.987Z,11.32
2023-02-04T12:04:53.774Z,12.40
2023-02-04T12:07:28.664Z,11.82
2023-02-04T12:09:57.782Z,11.95
2023-02-04T12:12:30.844Z,10.75
2023-02-04T12:15:04.804Z,18.45
2023-02-04T12:17:32.443Z,10.90
2023-02-04T12:20:00.067Z,14.07
2023-02-04T12:22:28.848Z,13.23
2023-02-04T12:24:56.440Z,11.10
2023-02-04T12:27:24.165Z,12.93
2023-02-04T12:29:56.680Z,11.23
2023-02-04T12:32:24.566Z,10.53
2023-02-04T12:34:53.772Z,9.90
2023-02-04T12:37:22.772Z,11.05
2023-02-04T12:39:51.831Z,9.63
2023-02-04T12:42:20.775Z,12.05
2023-02-04T12:44:49.391Z,9.40
2023-02-04T12:47:18.342Z,10.98
2023-02-04T12:49:48.774Z,9.80
2023-02-04T12:52:18.291Z,12.18
2023-02-04T12:54:46.789Z,12.23
2023-02-04T12:57:19.497Z,14.45
2023-02-04T12:59:47.409Z,9.38
2023-02-04T13:02:15.037Z,8.68
2023-02-04T13:04:44.753Z,9.52
2023-02-04T13:07:17.789Z,9.10
2023-02-04T13:09:45.984Z,9.20
2023-02-04T13:12:15.757Z,11.00
2023-02-04T13:14:45.001Z,8.75
2023-02-04T13:17:12.812Z,9.52
2023-02-04T13:19:40.848Z,10.77
2023-02-04T13:22:10.008Z,8.32
2023-02-04T13:24:37.849Z,7.72
2023-02-04T13:27:05.589Z,6.90
2023-02-04T13:29:33.776Z,8.88
2023-02-04T13:32:02.848Z,8.98
2023-02-04T13:34:34.186Z,11.30
2023-02-04T13:37:01.814Z,9.18
2023-02-04T13:39:33.767Z,8.00
2023-02-04T13:42:05.854Z,8.77
2023-02-04T13:44:34.078Z,10.18
2023-02-04T13:47:01.932Z,9.77
2023-02-04T13:49:33.779Z,8.05
2023-02-04T13:52:01.433Z,8.18
2023-02-04T13:54:28.974Z,9.93
2023-02-04T13:56:58.779Z,12.13
2023-02-04T13:59:27.855Z,12.82
2023-02-04T14:01:57.444Z,9.00
2023-02-04T14:04:26.953Z,7.65
2023-02-04T14:06:56.358Z,10.95
2023-02-04T14:09:26.782Z,9.13
2023-02-04T14:11:54.455Z,8.85
2023-02-04T14:14:23.416Z,9.48
2023-02-04T14:16:51.831Z,10.07
2023-02-04T14:19:27.784Z,8.65
2023-02-04T14:21:55.858Z,6.85
2023-02-04T14:24:23.419Z,7.05
2023-02-04T14:26:52.851Z,8.52
2023-02-04T14:29:20.753Z,8.50
2023-02-04T14:31:50.012Z,11.40
2023-02-04T14:34:17.622Z,5.88
2023-02-04T14:36:45.313Z,6.18
2023-02-04T14:39:12.893Z,8.90
2023-02-04T14:41:40.477Z,7.00
2023-02-04T14:44:08.079Z,6.15
2023-02-04T14:46:37.790Z,6.10
2023-02-04T14:49:07.918Z,7.38
2023-02-04T14:51:35.775Z,9.32
2023-02-04T14:54:03.371Z,6.20
2023-02-04T14:56:30.983Z,5.18
2023-02-04T14:58:58.795Z,8.55
2023-02-04T15:01:27.424Z,8.15
2023-02-04T15:03:55.180Z,8.30
2023-02-04T15:06:24.677Z,7.53
2023-02-04T15:08:52.871Z,10.65
2023-02-04T15:11:20.514Z,6.78
2023-02-04T15:13:48.524Z,6.05
2023-02-04T15:16:16.467Z,8.70
2023-02-04T15:18:45.867Z,5.40
2023-02-04T15:21:14.810Z,6.97
2023-02-04T15:23:47.212Z,5.75
2023-02-04T15:26:15.546Z,7.47
2023-02-04T15:28:43.265Z,5.25
2023-02-04T15:31:12.212Z,7.20
2023-02-04T15:33:39.997Z,8.50
2023-02-04T15:36:08.275Z,7.18
2023-02-04T15:38:36.477Z,5.75
2023-02-04T15:41:06.057Z,6.25
2023-02-04T15:43:34.189Z,7.20
2023-02-04T15:46:01.793Z,5.15
2023-02-04T15:48:30.766Z,6.68
2023-02-04T15:50:58.891Z,6.05
2023-02-04T15:53:27.307Z,6.63
2023-02-04T15:55:56.782Z,6.20
2023-02-04T15:58:25.804Z,7.55
2023-02-04T16:00:54.354Z,4.93
2023-02-04T16:03:21.908Z,5.60
2023-02-04T16:05:55.292Z,5.68
2023-02-04T16:08:23.354Z,6.50
2023-02-04T16:10:51.326Z,7.82
2023-02-04T16:13:45.516Z,5.95
2023-02-04T16:16:13.842Z,5.88
2023-02-04T16:18:46.794Z,6.63
2023-02-04T16:21:14.443Z,5.28
2023-02-04T16:23:43.544Z,6.10
2023-02-04T16:26:11.343Z,5.75
2023-02-04T16:28:38.963Z,5.90
2023-02-04T16:31:10.043Z,6.88
2023-02-04T16:33:37.894Z,7.47
2023-02-04T16:36:08.139Z,4.95
2023-02-04T16:38:38.803Z,4.60
2023-02-04T16:41:06.988Z,5.50
2023-02-04T16:43:35.421Z,6.45
2023-02-04T16:46:03.392Z,7.45
2023-02-04T16:48:37.179Z,5.88
2023-02-04T16:51:05.266Z,5.85
2023-02-04T16:53:33.364Z,9.15
2023-02-04T16:56:02.497Z,5.55
2023-02-04T16:58:30.237Z,6.28
2023-02-04T17:00:59.720Z,6.88
2023-02-04T17:03:31.770Z,6.07
2023-02-04T17:06:02.141Z,6.03
2023-02-04T17:08:30.465Z,5.45
2023-02-04T17:11:16.335Z,6.15
2023-02-04T17:13:44.451Z,4.95
2023-02-04T17:16:12.109Z,5.22
2023-02-04T17:18:40.512Z,6.55
2023-02-04T17:21:09.861Z,4.75
2023-02-04T17:23:39.442Z,4.97
2023-02-04T17:26:07.105Z,3.17
2023-02-04T17:28:34.738Z,5.82
2023-02-04T17:31:02.512Z,4.22
2023-02-04T17:33:30.168Z,5.03
2023-02-04T17:35:58.328Z,7.25
2023-02-04T17:38:28.207Z,4.97
2023-02-04T17:40:56.787Z,5.32
2023-02-04T17:43:25.957Z,5.35
2023-02-04T17:45:53.840Z,4.88
2023-02-04T17:48:21.471Z,6.38
2023-02-04T17:50:49.584Z,4.15
2023-02-04T17:53:17.313Z,4.93
2023-02-04T17:55:47.040Z,7.22
2023-02-04T17:58:17.784Z,7.80
2023-02-04T18:00:48.853Z,4.47
2023-02-04T18:03:22.794Z,4.50
2023-02-04T18:05:53.637Z,4.93
2023-02-04T18:08:24.451Z,3.72
2023-02-04T18:10:55.572Z,4.80
2023-02-04T18:13:25.529Z,3.90
2023-02-04T18:15:56.126Z,4.15
2023-02-04T18:18:26.151Z,5.22
2023-02-04T18:21:04.067Z,5.57
2023-02-04T18:23:33.855Z,7.25
2023-02-04T18:26:12.480Z,4.43
2023-02-04T18:28:44.858Z,4.88
2023-02-04T18:31:29.823Z,4.90
2023-02-04T18:33:59.617Z,5.72
2023-02-04T18:36:27.302Z,4.88
2023-02-04T18:38:56.388Z,4.30
2023-02-04T18:41:33.809Z,7.35
2023-02-04T18:44:17.706Z,5.07
2023-02-04T18:46:48.117Z,7.65
2023-02-04T18:49:27.789Z,5.32
2023-02-04T18:51:57.706Z,6.75
2023-02-04T18:54:36.072Z,6.55
2023-02-04T18:57:28.918Z,7.05
2023-02-04T19:00:19.541Z,5.63
2023-02-04T19:02:49.953Z,6.10
2023-02-04T19:05:27.263Z,9.20
2023-02-04T19:08:17.640Z,7.85
2023-02-04T19:10:45.304Z,7.38
2023-02-04T19:13:19.469Z,5.90
2023-02-04T19:15:56.790Z,5.88
2023-02-04T19:18:28.014Z,5.53
2023-02-04T19:20:56.069Z,5.78
2023-02-04T19:23:25.386Z,6.07
2023-02-04T19:25:54.109Z,9.02
2023-02-04T19:28:33.825Z,9.75
2023-02-04T19:31:03.034Z,10.40
2023-02-04T19:33:35.684Z,9.68
2023-02-04T19:36:22.746Z,11.00
2023-02-04T19:38:56.303Z,10.00
2023-02-04T19:41:29.830Z,8.02
2023-02-04T19:44:25.853Z,7.07
2023-02-04T19:46:54.197Z,8.35
2023-02-04T19:49:25.232Z,6.45
2023-02-04T19:51:55.773Z,6.80
2023-02-04T19:54:35.345Z,6.65
2023-02-04T19:57:03.566Z,7.90
2023-02-04T19:59:37.157Z,7.90
2023-02-04T20:02:29.206Z,6.68
2023-02-04T20:04:56.992Z,10.18
2023-02-04T20:07:26.473Z,8.50
2023-02-04T20:09:58.797Z,9.10
2023-02-04T20:12:29.472Z,8.52
2023-02-04T20:14:58.662Z,5.38
2023-02-04T20:17:46.475Z,6.90
2023-02-04T20:20:21.871Z,5.43
2023-02-04T20:22:51.634Z,4.65
2023-02-04T20:25:41.458Z,6.68
2023-02-04T20:28:37.722Z,5.38
2023-02-04T20:31:19.354Z,8.77
2023-02-04T20:33:49.790Z,8.07
2023-02-04T20:36:45.950Z,8.00
2023-02-04T20:39:39.900Z,8.95
2023-02-04T20:42:35.604Z,7.82
2023-02-04T20:45:13.338Z,6.13
2023-02-04T20:47:42.362Z,6.45
2023-02-04T20:50:39.779Z,7.00
2023-02-04T20:53:21.950Z,7.38
2023-02-04T20:55:52.515Z,11.32
2023-02-04T20:58:22.578Z,5.78
2023-02-04T21:00:53.836Z,6.70
2023-02-04T21:03:34.745Z,6.97
2023-02-04T21:06:03.715Z,4.38
2023-02-04T21:08:38.100Z,4.78
2023-02-04T21:11:06.800Z,6.10
2023-02-04T21:13:35.090Z,7.15
2023-02-04T21:16:03.487Z,8.15
2023-02-04T21:18:34.725Z,6.18
2023-02-04T21:21:03.317Z,8.98
2023-02-04T21:23:31.697Z,7.50
2023-02-04T21:25:59.869Z,8.32
2023-02-04T21:28:30.459Z,7.45
2023-02-04T21:30:59.967Z,7.97
2023-02-04T21:33:28.247Z,8.85
2023-02-04T21:35:57.197Z,6.55
2023-02-04T21:38:24.803Z,7.50
2023-02-04T21:40:52.441Z,8.27
2023-02-04T21:43:20.074Z,6.13
2023-02-04T21:45:47.645Z,7.40
2023-02-04T21:48:15.663Z,9.73
2023-02-04T21:50:43.305Z,10.02
2023-02-04T21:53:12.508Z,8.48
2023-02-04T21:55:40.357Z,9.02
2023-02-04T21:58:08.894Z,8.55
2023-02-04T22:00:36.591Z,9.88
2023-02-04T22:03:04.297Z,8.30
2023-02-04T22:05:33.211Z,7.60
2023-02-04T22:08:01.110Z,6.70
2023-02-04T22:10:31.840Z,7.57
2023-02-04T22:13:17.124Z,10.57
2023-02-04T22:15:48.866Z,10.38
2023-02-04T22:18:16.556Z,9.73
2023-02-04T22:20:44.188Z,9.35
2023-02-04T22:23:11.830Z,10.82
2023-02-04T22:25:40.834Z,8.35
2023-02-04T22:28:09.342Z,9.63
2023-02-04T22:30:37.751Z,9.40
2023-02-04T22:33:05.447Z,9.05
2023-02-04T22:35:35.427Z,10.27
2023-02-04T22:38:03.425Z,9.85
2023-02-04T22:40:31.089Z,11.20
2023-02-04T22:43:00.867Z,13.27
2023-02-04T22:45:29.257Z,9.82
2023-02-04T22:47:56.892Z,10.55
2023-02-04T22:50:24.496Z,12.30
2023-02-04T22:52:52.026Z,12.27
2023-02-04T22:55:20.115Z,11.50
2023-02-04T22:57:47.723Z,9.38
2023-02-04T23:00:18.164Z,11.38
2023-02-04T23:02:45.904Z,10.20
2023-02-04T23:05:15.207Z,11.07
2023-02-04T23:07:42.806Z,10.98
2023-02-04T23:10:10.894Z,10.50
2023-02-04T23:12:38.526Z,10.15
2023-02-04T23:15:06.691Z,13.20
2023-02-04T23:17:36.741Z,10.73
2023-02-04T23:20:06.857Z,11.67
2023-02-04T23:22:37.233Z,11.83
2023-02-04T23:25:06.628Z,8.65
2023-02-04T23:27:37.441Z,9.77
2023-02-04T23:30:06.857Z,9.75
2023-02-04T23:32:36.543Z,9.63
2023-02-04T23:35:04.170Z,11.75
2023-02-04T23:37:32.368Z,13.48
2023-02-04T23:40:00.310Z,13.38
2023-02-04T23:42:27.982Z,12.65
2023-02-04T23:44:55.850Z,10.43
2023-02-04T23:47:23.573Z,12.45
2023-02-04T23:49:52.853Z,12.25
2023-02-04T23:52:20.506Z,13.18
2023-02-04T23:54:48.242Z,13.68
2023-02-04T23:57:16.874Z,11.48
2023-02-04T23:59:45.305Z,11.82
